sensor_id;sensor_type;location;lat;lon;timestamp;pressure;altitude;pressure_sealevel;temperature
80246;BMP280;69558;39.208;-77.226;2023-07-31T03:04:02;100046.16;;;25.83
80246;BMP280;69558;39.208;-77.226;2023-07-31T03:06:35;100044.06;;;25.85
80246;BMP280;69558;39.208;-77.226;2023-07-31T03:09:02;100044.06;;;25.85
80246;BMP280;69558;39.208;-77.226;2023-07-31T03:11:28;100041.88;;;25.82
80246;BMP280;69558;39.208;-77.226;2023-07-31T03:13:54;100050.47;;;25.84
80246;BMP280;69558;39.208;-77.226;2023-07-31T03:16:20;100030.13;;;25.78
80246;BMP280;69558;39.208;-77.226;2023-07-31T03:18:49;100052.59;;;25.87
80246;BMP280;69558;39.208;-77.226;2023-07-31T03:21:15;100052.84;;;25.86
80246;BMP280;69558;39.208;-77.226;2023-07-31T03:23:40;100043.25;;;25.85
80246;BMP280;69558;39.208;-77.226;2023-07-31T03:26:10;100048.34;;;25.86
80246;BMP280;69558;39.208;-77.226;2023-07-31T03:28:37;100043.25;;;25.85
80246;BMP280;69558;39.208;-77.226;2023-07-31T03:31:03;100037.94;;;25.85
80246;BMP280;69558;39.208;-77.226;2023-07-31T03:33:29;100048.59;;;25.85
80246;BMP280;69558;39.208;-77.226;2023-07-31T03:35:56;100037.63;;;25.81
80246;BMP280;69558;39.208;-77.226;2023-07-31T03:38:23;100032.06;;;25.83
80246;BMP280;69558;39.208;-77.226;2023-07-31T03:40:48;100033.44;;;25.85
80246;BMP280;69558;39.208;-77.226;2023-07-31T03:43:15;100025.13;;;25.82
80246;BMP280;69558;39.208;-77.226;2023-07-31T03:45:41;100034.50;;;25.84
80246;BMP280;69558;39.208;-77.226;2023-07-31T03:48:07;100034.50;;;25.84
80246;BMP280;69558;39.208;-77.226;2023-07-31T03:50:34;100037.19;;;25.84
80246;BMP280;69558;39.208;-77.226;2023-07-31T03:53:00;100036.34;;;25.84
80246;BMP280;69558;39.208;-77.226;2023-07-31T03:55:26;100038.75;;;25.85
80246;BMP280;69558;39.208;-77.226;2023-07-31T03:57:52;100042.22;;;25.86
80246;BMP280;69558;39.208;-77.226;2023-07-31T04:00:18;100036.84;;;25.81
80246;BMP280;69558;39.208;-77.226;2023-07-31T04:02:44;100049.88;;;25.82
80246;BMP280;69558;39.208;-77.226;2023-07-31T04:05:11;100049.88;;;25.82
80246;BMP280;69558;39.208;-77.226;2023-07-31T04:07:37;100052.53;;;25.82
80246;BMP280;69558;39.208;-77.226;2023-07-31T04:10:03;100074.91;;;25.86
80246;BMP280;69558;39.208;-77.226;2023-07-31T04:12:30;100077.25;;;25.83
80246;BMP280;69558;39.208;-77.226;2023-07-31T04:14:55;100093.75;;;25.85
80246;BMP280;69558;39.208;-77.226;2023-07-31T04:17:22;100093.75;;;25.85
80246;BMP280;69558;39.208;-77.226;2023-07-31T04:19:48;100085.56;;;25.69
80246;BMP280;69558;39.208;-77.226;2023-07-31T04:22:15;100109.69;;;25.85
80246;BMP280;69558;39.208;-77.226;2023-07-31T04:24:41;100117.66;;;25.85
80246;BMP280;69558;39.208;-77.226;2023-07-31T04:27:07;100124.88;;;25.84
80246;BMP280;69558;39.208;-77.226;2023-07-31T04:29:33;100123.00;;;25.85
80246;BMP280;69558;39.208;-77.226;2023-07-31T04:32:00;100121.88;;;25.81
80246;BMP280;69558;39.208;-77.226;2023-07-31T04:34:26;100116.31;;;25.82
80246;BMP280;69558;39.208;-77.226;2023-07-31T04:36:52;100115.16;;;25.78
80246;BMP280;69558;39.208;-77.226;2023-07-31T04:39:18;100121.88;;;25.81
80246;BMP280;69558;39.208;-77.226;2023-07-31T04:41:45;100113.25;;;25.73
80246;BMP280;69558;39.208;-77.226;2023-07-31T04:44:12;100132.00;;;25.84
80246;BMP280;69558;39.208;-77.226;2023-07-31T04:46:38;100126.69;;;25.84
80246;BMP280;69558;39.208;-77.226;2023-07-31T04:49:04;100131.75;;;25.85
80246;BMP280;69558;39.208;-77.226;2023-07-31T04:51:30;100130.19;;;25.84
80246;BMP280;69558;39.208;-77.226;2023-07-31T04:53:56;100121.63;;;25.82
80246;BMP280;69558;39.208;-77.226;2023-07-31T04:56:23;100107.13;;;25.73
80246;BMP280;69558;39.208;-77.226;2023-07-31T04:58:49;100117.91;;;25.83
80246;BMP280;69558;39.208;-77.226;2023-07-31T05:01:14;100113.63;;;25.82
80246;BMP280;69558;39.208;-77.226;2023-07-31T05:03:47;100098.91;;;25.75
80246;BMP280;69558;39.208;-77.226;2023-07-31T05:06:13;100098.91;;;25.75
80246;BMP280;69558;39.208;-77.226;2023-07-31T05:08:40;100114.97;;;25.80
80246;BMP280;69558;39.208;-77.226;2023-07-31T05:11:08;100113.59;;;25.77
80246;BMP280;69558;39.208;-77.226;2023-07-31T05:13:34;100121.28;;;25.79
80246;BMP280;69558;39.208;-77.226;2023-07-31T05:16:00;100110.94;;;25.77
80246;BMP280;69558;39.208;-77.226;2023-07-31T05:18:26;100110.94;;;25.77
80246;BMP280;69558;39.208;-77.226;2023-07-31T05:20:52;100115.75;;;25.80
80246;BMP280;69558;39.208;-77.226;2023-07-31T05:23:18;100108.84;;;25.79
80246;BMP280;69558;39.208;-77.226;2023-07-31T05:25:45;100113.09;;;25.80
80246;BMP280;69558;39.208;-77.226;2023-07-31T05:28:12;100121.06;;;25.80
80246;BMP280;69558;39.208;-77.226;2023-07-31T05:30:38;100113.59;;;25.77
80246;BMP280;69558;39.208;-77.226;2023-07-31T05:33:04;100122.13;;;25.79
80246;BMP280;69558;39.208;-77.226;2023-07-31T05:35:31;100122.41;;;25.83
80246;BMP280;69558;39.208;-77.226;2023-07-31T05:37:56;100113.91;;;25.81
80246;BMP280;69558;39.208;-77.226;2023-07-31T05:40:23;100117.34;;;25.81
80246;BMP280;69558;39.208;-77.226;2023-07-31T05:42:48;100116.56;;;25.81
80246;BMP280;69558;39.208;-77.226;2023-07-31T05:45:15;100113.31;;;25.79
80246;BMP280;69558;39.208;-77.226;2023-07-31T05:47:40;100113.31;;;25.79
80246;BMP280;69558;39.208;-77.226;2023-07-31T05:50:08;100108.84;;;25.79
80246;BMP280;69558;39.208;-77.226;2023-07-31T05:52:33;100108.84;;;25.79
80246;BMP280;69558;39.208;-77.226;2023-07-31T05:55:00;100117.63;;;25.80
80246;BMP280;69558;39.208;-77.226;2023-07-31T05:57:27;100107.78;;;25.80
80246;BMP280;69558;39.208;-77.226;2023-07-31T05:59:53;100106.19;;;25.79
80246;BMP280;69558;39.208;-77.226;2023-07-31T06:02:19;100096.03;;;25.76
80246;BMP280;69558;39.208;-77.226;2023-07-31T06:04:45;100101.88;;;25.78
80246;BMP280;69558;39.208;-77.226;2023-07-31T06:07:11;100101.88;;;25.78
80246;BMP280;69558;39.208;-77.226;2023-07-31T06:09:38;100095.78;;;25.78
80246;BMP280;69558;39.208;-77.226;2023-07-31T06:12:05;100095.78;;;25.78
80246;BMP280;69558;39.208;-77.226;2023-07-31T06:14:31;100096.25;;;25.75
80246;BMP280;69558;39.208;-77.226;2023-07-31T06:16:57;100085.41;;;25.76
80246;BMP280;69558;39.208;-77.226;2023-07-31T06:19:23;100083.28;;;25.78
80246;BMP280;69558;39.208;-77.226;2023-07-31T06:21:48;100083.22;;;25.90
80246;BMP280;69558;39.208;-77.226;2023-07-31T06:24:14;100072.59;;;25.90
80246;BMP280;69558;39.208;-77.226;2023-07-31T06:26:44;100055.31;;;25.92
80246;BMP280;69558;39.208;-77.226;2023-07-31T06:29:10;100045.00;;;25.96
80246;BMP280;69558;39.208;-77.226;2023-07-31T06:31:37;100029.88;;;25.96
80246;BMP280;69558;39.208;-77.226;2023-07-31T06:34:04;100012.06;;;25.97
80246;BMP280;69558;39.208;-77.226;2023-07-31T06:36:31;100007.25;;;25.94
80246;BMP280;69558;39.208;-77.226;2023-07-31T06:38:57;100004.59;;;25.94
80246;BMP280;69558;39.208;-77.226;2023-07-31T06:41:23;100004.59;;;25.94
80246;BMP280;69558;39.208;-77.226;2023-07-31T06:43:49;100002.13;;;25.87
80246;BMP280;69558;39.208;-77.226;2023-07-31T06:46:15;99998.03;;;25.80
80246;BMP280;69558;39.208;-77.226;2023-07-31T06:48:40;100000.91;;;25.78
80246;BMP280;69558;39.208;-77.226;2023-07-31T06:51:08;99995.59;;;25.78
80246;BMP280;69558;39.208;-77.226;2023-07-31T06:53:35;99995.59;;;25.78
80246;BMP280;69558;39.208;-77.226;2023-07-31T06:56:00;99980.91;;;25.70
80246;BMP280;69558;39.208;-77.226;2023-07-31T06:58:27;99997.47;;;25.78
80246;BMP280;69558;39.208;-77.226;2023-07-31T07:00:53;99995.59;;;25.78
80246;BMP280;69558;39.208;-77.226;2023-07-31T07:03:19;99979.72;;;25.83
80246;BMP280;69558;39.208;-77.226;2023-07-31T07:06:25;99979.72;;;25.83
80246;BMP280;69558;39.208;-77.226;2023-07-31T07:08:51;99966.44;;;25.83
80246;BMP280;69558;39.208;-77.226;2023-07-31T07:11:17;99966.44;;;25.83
80246;BMP280;69558;39.208;-77.226;2023-07-31T07:13:44;99972.00;;;25.82
80246;BMP280;69558;39.208;-77.226;2023-07-31T07:16:10;99969.81;;;25.79
80246;BMP280;69558;39.208;-77.226;2023-07-31T07:18:37;99968.81;;;25.80
80246;BMP280;69558;39.208;-77.226;2023-07-31T07:21:03;99969.09;;;25.83
80246;BMP280;69558;39.208;-77.226;2023-07-31T07:23:29;99961.03;;;25.78
80246;BMP280;69558;39.208;-77.226;2023-07-31T07:25:55;99952.34;;;25.83
80246;BMP280;69558;39.208;-77.226;2023-07-31T07:28:21;99954.47;;;25.81
80246;BMP280;69558;39.208;-77.226;2023-07-31T07:30:52;99947.59;;;25.85
80246;BMP280;69558;39.208;-77.226;2023-07-31T07:33:21;99953.16;;;25.83
80246;BMP280;69558;39.208;-77.226;2023-07-31T07:35:48;99967.25;;;25.84
80246;BMP280;69558;39.208;-77.226;2023-07-31T07:38:14;99973.13;;;25.86
80246;BMP280;69558;39.208;-77.226;2023-07-31T07:40:40;99969.09;;;25.83
80246;BMP280;69558;39.208;-77.226;2023-07-31T07:43:08;99971.19;;;25.81
80246;BMP280;69558;39.208;-77.226;2023-07-31T07:45:35;99963.69;;;25.78
80246;BMP280;69558;39.208;-77.226;2023-07-31T07:48:01;99962.69;;;25.79
80246;BMP280;69558;39.208;-77.226;2023-07-31T07:50:27;99965.09;;;25.81
80246;BMP280;69558;39.208;-77.226;2023-07-31T07:52:53;99967.69;;;25.76
80246;BMP280;69558;39.208;-77.226;2023-07-31T07:55:19;99978.38;;;25.81
80246;BMP280;69558;39.208;-77.226;2023-07-31T07:57:45;99972.28;;;25.80
80246;BMP280;69558;39.208;-77.226;2023-07-31T08:00:12;99977.63;;;25.85
80246;BMP280;69558;39.208;-77.226;2023-07-31T08:02:39;99977.63;;;25.85
80246;BMP280;69558;39.208;-77.226;2023-07-31T08:05:05;99985.03;;;25.83
80246;BMP280;69558;39.208;-77.226;2023-07-31T08:07:31;99985.03;;;25.83
80246;BMP280;69558;39.208;-77.226;2023-07-31T08:09:57;99979.72;;;25.83
80246;BMP280;69558;39.208;-77.226;2023-07-31T08:12:23;99981.56;;;25.83
80246;BMP280;69558;39.208;-77.226;2023-07-31T08:14:49;99981.56;;;25.83
80246;BMP280;69558;39.208;-77.226;2023-07-31T08:17:15;99988.22;;;25.80
80246;BMP280;69558;39.208;-77.226;2023-07-31T08:19:41;99988.22;;;25.80
80246;BMP280;69558;39.208;-77.226;2023-07-31T08:22:08;99989.00;;;25.81
80246;BMP280;69558;39.208;-77.226;2023-07-31T08:24:34;99999.66;;;25.81
80246;BMP280;69558;39.208;-77.226;2023-07-31T08:27:00;100000.91;;;25.78
80246;BMP280;69558;39.208;-77.226;2023-07-31T08:29:27;100003.34;;;25.80
80246;BMP280;69558;39.208;-77.226;2023-07-31T08:31:53;100002.63;;;25.84
80246;BMP280;69558;39.208;-77.226;2023-07-31T08:34:19;99996.72;;;25.82
80246;BMP280;69558;39.208;-77.226;2023-07-31T08:36:45;99994.06;;;25.82
80246;BMP280;69558;39.208;-77.226;2023-07-31T08:39:11;100000.13;;;25.78
80246;BMP280;69558;39.208;-77.226;2023-07-31T08:41:40;100003.56;;;25.78
80246;BMP280;69558;39.208;-77.226;2023-07-31T08:44:10;100003.34;;;25.80
80246;BMP280;69558;39.208;-77.226;2023-07-31T08:46:37;100001.72;;;25.79
80246;BMP280;69558;39.208;-77.226;2023-07-31T08:49:04;100001.91;;;25.72
80246;BMP280;69558;39.208;-77.226;2023-07-31T08:51:34;100005.94;;;25.75
80246;BMP280;69558;39.208;-77.226;2023-07-31T08:54:01;99990.13;;;25.68
80246;BMP280;69558;39.208;-77.226;2023-07-31T08:56:29;99998.03;;;25.80
80246;BMP280;69558;39.208;-77.226;2023-07-31T08:58:57;99992.41;;;25.76
80246;BMP280;69558;39.208;-77.226;2023-07-31T09:01:24;99998.03;;;25.80
80246;BMP280;69558;39.208;-77.226;2023-07-31T09:03:52;100003.03;;;25.76
80246;BMP280;69558;39.208;-77.226;2023-07-31T09:06:33;100010.75;;;25.78
80246;BMP280;69558;39.208;-77.226;2023-07-31T09:09:00;100010.75;;;25.78
80246;BMP280;69558;39.208;-77.226;2023-07-31T09:11:27;100000.56;;;25.69
80246;BMP280;69558;39.208;-77.226;2023-07-31T09:13:53;100022.44;;;25.77
80246;BMP280;69558;39.208;-77.226;2023-07-31T09:16:28;100023.25;;;25.77
80246;BMP280;69558;39.208;-77.226;2023-07-31T09:18:56;100023.25;;;25.77
80246;BMP280;69558;39.208;-77.226;2023-07-31T09:21:24;100020.03;;;25.75
80246;BMP280;69558;39.208;-77.226;2023-07-31T09:23:51;100018.41;;;25.74
80246;BMP280;69558;39.208;-77.226;2023-07-31T09:26:30;100026.22;;;25.81
80246;BMP280;69558;39.208;-77.226;2023-07-31T09:29:00;100026.22;;;25.81
80246;BMP280;69558;39.208;-77.226;2023-07-31T09:31:53;100016.84;;;25.78
80246;BMP280;69558;39.208;-77.226;2023-07-31T09:34:20;100016.31;;;25.76
80246;BMP280;69558;39.208;-77.226;2023-07-31T09:36:48;100021.38;;;25.78
80246;BMP280;69558;39.208;-77.226;2023-07-31T09:39:16;100005.88;;;25.69
80246;BMP280;69558;39.208;-77.226;2023-07-31T09:41:44;100014.69;;;25.75
80246;BMP280;69558;39.208;-77.226;2023-07-31T09:44:12;100023.47;;;25.76
80246;BMP280;69558;39.208;-77.226;2023-07-31T09:46:39;100023.25;;;25.77
80246;BMP280;69558;39.208;-77.226;2023-07-31T09:51:38;100038.63;;;25.75
80246;BMP280;69558;39.208;-77.226;2023-07-31T09:54:15;100049.25;;;25.75
80246;BMP280;69558;39.208;-77.226;2023-07-31T09:59:18;100050.63;;;25.78
80246;BMP280;69558;39.208;-77.226;2023-07-31T10:01:46;100059.06;;;25.75
80246;BMP280;69558;39.208;-77.226;2023-07-31T10:04:13;100061.97;;;25.73
80246;BMP280;69558;39.208;-77.226;2023-07-31T10:06:42;100061.97;;;25.73
80246;BMP280;69558;39.208;-77.226;2023-07-31T10:09:11;100058.50;;;25.72
80246;BMP280;69558;39.208;-77.226;2023-07-31T10:11:42;100056.09;;;25.71
80246;BMP280;69558;39.208;-77.226;2023-07-31T10:14:19;100052.06;;;25.68
80246;BMP280;69558;39.208;-77.226;2023-07-31T10:16:45;100044.84;;;25.64
80246;BMP280;69558;39.208;-77.226;2023-07-31T10:19:12;100059.06;;;25.75
80246;BMP280;69558;39.208;-77.226;2023-07-31T10:21:38;100060.09;;;25.73
80246;BMP280;69558;39.208;-77.226;2023-07-31T10:24:05;100067.28;;;25.73
80246;BMP280;69558;39.208;-77.226;2023-07-31T10:26:32;100056.97;;;25.77
80246;BMP280;69558;39.208;-77.226;2023-07-31T10:29:01;100056.97;;;25.77
80246;BMP280;69558;39.208;-77.226;2023-07-31T10:31:28;100047.78;;;25.67
80246;BMP280;69558;39.208;-77.226;2023-07-31T10:33:56;100060.91;;;25.74
80246;BMP280;69558;39.208;-77.226;2023-07-31T10:36:24;100061.97;;;25.73
80246;BMP280;69558;39.208;-77.226;2023-07-31T10:38:51;100060.91;;;25.74
80246;BMP280;69558;39.208;-77.226;2023-07-31T10:41:17;100060.91;;;25.74
80246;BMP280;69558;39.208;-77.226;2023-07-31T10:43:46;100054.00;;;25.73
80246;BMP280;69558;39.208;-77.226;2023-07-31T10:46:13;100046.69;;;25.63
80246;BMP280;69558;39.208;-77.226;2023-07-31T10:48:41;100071.78;;;25.72
80246;BMP280;69558;39.208;-77.226;2023-07-31T10:51:09;100071.78;;;25.72
80246;BMP280;69558;39.208;-77.226;2023-07-31T10:53:36;100080.56;;;25.73
80246;BMP280;69558;39.208;-77.226;2023-07-31T10:56:08;100091.75;;;25.75
80246;BMP280;69558;39.208;-77.226;2023-07-31T10:58:37;100104.72;;;25.71
80246;BMP280;69558;39.208;-77.226;2023-07-31T11:01:04;100104.72;;;25.71
80246;BMP280;69558;39.208;-77.226;2023-07-31T11:03:43;100118.00;;;25.71
80246;BMP280;69558;39.208;-77.226;2023-07-31T11:06:09;100121.47;;;25.72
80246;BMP280;69558;39.208;-77.226;2023-07-31T11:08:47;100121.47;;;25.72
80246;BMP280;69558;39.208;-77.226;2023-07-31T11:11:16;100125.97;;;25.71
80246;BMP280;69558;39.208;-77.226;2023-07-31T11:13:50;100122.66;;;25.64
80246;BMP280;69558;39.208;-77.226;2023-07-31T11:16:24;100121.47;;;25.72
80246;BMP280;69558;39.208;-77.226;2023-07-31T11:18:53;100129.44;;;25.72
80246;BMP280;69558;39.208;-77.226;2023-07-31T11:21:23;100134.75;;;25.72
80246;BMP280;69558;39.208;-77.226;2023-07-31T11:23:52;100123.63;;;25.58
80246;BMP280;69558;39.208;-77.226;2023-07-31T11:26:19;100137.41;;;25.72
80246;BMP280;69558;39.208;-77.226;2023-07-31T11:28:49;100138.78;;;25.75
80246;BMP280;69558;39.208;-77.226;2023-07-31T11:31:16;100155.75;;;25.73
80246;BMP280;69558;39.208;-77.226;2023-07-31T11:33:44;100161.31;;;25.72
80246;BMP280;69558;39.208;-77.226;2023-07-31T11:36:20;100149.81;;;25.66
80246;BMP280;69558;39.208;-77.226;2023-07-31T11:38:47;100141.19;;;25.59
80246;BMP280;69558;39.208;-77.226;2023-07-31T11:41:15;100141.19;;;25.59
80246;BMP280;69558;39.208;-77.226;2023-07-31T11:43:46;100161.78;;;25.69
80246;BMP280;69558;39.208;-77.226;2023-07-31T11:46:13;100161.78;;;25.69
80246;BMP280;69558;39.208;-77.226;2023-07-31T11:48:40;100155.94;;;25.67
80246;BMP280;69558;39.208;-77.226;2023-07-31T11:51:10;100161.97;;;25.62
80246;BMP280;69558;39.208;-77.226;2023-07-31T11:56:08;100166.63;;;25.72
80246;BMP280;69558;39.208;-77.226;2023-07-31T11:58:38;100163.63;;;25.68
80246;BMP280;69558;39.208;-77.226;2023-07-31T12:01:05;100173.72;;;25.66
80246;BMP280;69558;39.208;-77.226;2023-07-31T12:03:32;100170.34;;;25.71
80246;BMP280;69558;39.208;-77.226;2023-07-31T12:05:59;100176.91;;;25.68
80246;BMP280;69558;39.208;-77.226;2023-07-31T12:08:25;100176.91;;;25.68
80246;BMP280;69558;39.208;-77.226;2023-07-31T12:10:53;100177.72;;;25.69
80246;BMP280;69558;39.208;-77.226;2023-07-31T12:13:24;100162.66;;;25.58
80246;BMP280;69558;39.208;-77.226;2023-07-31T12:15:57;100175.31;;;25.67
80246;BMP280;69558;39.208;-77.226;2023-07-31T12:18:25;100187.00;;;25.66
80246;BMP280;69558;39.208;-77.226;2023-07-31T12:20:56;100182.97;;;25.64
80246;BMP280;69558;39.208;-77.226;2023-07-31T12:23:24;100188.88;;;25.66
80246;BMP280;69558;39.208;-77.226;2023-07-31T12:28:27;100196.31;;;25.69
80246;BMP280;69558;39.208;-77.226;2023-07-31T12:30:59;100185.50;;;25.70
80246;BMP280;69558;39.208;-77.226;2023-07-31T12:33:35;100185.38;;;25.82
80246;BMP280;69558;39.208;-77.226;2023-07-31T12:36:09;100175.75;;;25.76
80246;BMP280;69558;39.208;-77.226;2023-07-31T12:38:35;100182.66;;;25.77
80246;BMP280;69558;39.208;-77.226;2023-07-31T12:41:01;100175.97;;;25.75
80246;BMP280;69558;39.208;-77.226;2023-07-31T12:43:27;100177.34;;;25.77
80246;BMP280;69558;39.208;-77.226;2023-07-31T12:45:54;100182.56;;;25.72
80246;BMP280;69558;39.208;-77.226;2023-07-31T12:48:21;100179.09;;;25.71
80246;BMP280;69558;39.208;-77.226;2023-07-31T12:50:47;100189.25;;;25.75
80246;BMP280;69558;39.208;-77.226;2023-07-31T12:53:15;100186.84;;;25.73
80246;BMP280;69558;39.208;-77.226;2023-07-31T12:55:41;100189.03;;;25.76
80246;BMP280;69558;39.208;-77.226;2023-07-31T12:58:08;100189.25;;;25.75
80246;BMP280;69558;39.208;-77.226;2023-07-31T13:00:34;100182.09;;;25.75
80246;BMP280;69558;39.208;-77.226;2023-07-31T13:03:01;100166.09;;;25.70
80246;BMP280;69558;39.208;-77.226;2023-07-31T13:05:27;100182.56;;;25.72
80246;BMP280;69558;39.208;-77.226;2023-07-31T13:07:54;100184.44;;;25.71
80246;BMP280;69558;39.208;-77.226;2023-07-31T13:10:21;100166.22;;;25.63
80246;BMP280;69558;39.208;-77.226;2023-07-31T13:12:48;100166.22;;;25.63
80246;BMP280;69558;39.208;-77.226;2023-07-31T13:15:14;100183.88;;;25.69
80246;BMP280;69558;39.208;-77.226;2023-07-31T13:17:41;100185.22;;;25.72
80246;BMP280;69558;39.208;-77.226;2023-07-31T13:20:08;100185.22;;;25.72
80246;BMP280;69558;39.208;-77.226;2023-07-31T13:22:35;100172.75;;;25.72
80246;BMP280;69558;39.208;-77.226;2023-07-31T13:25:00;100184.53;;;25.77
80246;BMP280;69558;39.208;-77.226;2023-07-31T13:27:27;100183.13;;;25.74
80246;BMP280;69558;39.208;-77.226;2023-07-31T13:29:53;100183.13;;;25.74
80246;BMP280;69558;39.208;-77.226;2023-07-31T13:32:19;100185.81;;;25.74
80246;BMP280;69558;39.208;-77.226;2023-07-31T13:34:47;100157.94;;;25.60
80246;BMP280;69558;39.208;-77.226;2023-07-31T13:37:14;100182.09;;;25.75
80246;BMP280;69558;39.208;-77.226;2023-07-31T13:39:41;100185.00;;;25.73
80246;BMP280;69558;39.208;-77.226;2023-07-31T13:42:09;100165.75;;;25.66
80246;BMP280;69558;39.208;-77.226;2023-07-31T13:44:41;100175.16;;;25.74
80246;BMP280;69558;39.208;-77.226;2023-07-31T13:47:08;100175.16;;;25.74
80246;BMP280;69558;39.208;-77.226;2023-07-31T13:49:35;100187.34;;;25.70
80246;BMP280;69558;39.208;-77.226;2023-07-31T13:52:02;100187.09;;;25.71
80246;BMP280;69558;39.208;-77.226;2023-07-31T13:54:28;100187.09;;;25.71
80246;BMP280;69558;39.208;-77.226;2023-07-31T13:56:55;100185.81;;;25.74
80246;BMP280;69558;39.208;-77.226;2023-07-31T13:59:21;100182.56;;;25.72
80246;BMP280;69558;39.208;-77.226;2023-07-31T14:01:47;100187.88;;;25.72
80246;BMP280;69558;39.208;-77.226;2023-07-31T14:04:15;100199.09;;;25.74
80246;BMP280;69558;39.208;-77.226;2023-07-31T14:06:41;100204.16;;;25.76
80246;BMP280;69558;39.208;-77.226;2023-07-31T14:09:08;100204.16;;;25.76
80246;BMP280;69558;39.208;-77.226;2023-07-31T14:11:34;100175.47;;;25.61
80246;BMP280;69558;39.208;-77.226;2023-07-31T14:14:00;100192.56;;;25.65
80246;BMP280;69558;39.208;-77.226;2023-07-31T14:16:32;100192.31;;;25.66
80246;BMP280;69558;39.208;-77.226;2023-07-31T14:18:58;100192.31;;;25.66
80246;BMP280;69558;39.208;-77.226;2023-07-31T14:21:25;100204.50;;;25.79
80246;BMP280;69558;39.208;-77.226;2023-07-31T14:23:51;100202.72;;;25.85
80246;BMP280;69558;39.208;-77.226;2023-07-31T14:26:17;100199.88;;;25.91
80246;BMP280;69558;39.208;-77.226;2023-07-31T14:28:43;100201.09;;;25.84
80246;BMP280;69558;39.208;-77.226;2023-07-31T14:31:09;100201.09;;;25.84
80246;BMP280;69558;39.208;-77.226;2023-07-31T14:33:35;100183.94;;;25.75
80246;BMP280;69558;39.208;-77.226;2023-07-31T14:36:01;100192.88;;;25.85
80246;BMP280;69558;39.208;-77.226;2023-07-31T14:38:27;100191.31;;;25.84
80246;BMP280;69558;39.208;-77.226;2023-07-31T14:40:52;100197.63;;;25.83
80246;BMP280;69558;39.208;-77.226;2023-07-31T14:43:18;100200.53;;;25.82
80246;BMP280;69558;39.208;-77.226;2023-07-31T14:45:44;100201.97;;;25.72
80246;BMP280;69558;39.208;-77.226;2023-07-31T14:48:12;100209.84;;;25.67
80246;BMP280;69558;39.208;-77.226;2023-07-31T14:50:39;100204.47;;;25.62
80246;BMP280;69558;39.208;-77.226;2023-07-31T14:53:04;100198.81;;;25.59
80246;BMP280;69558;39.208;-77.226;2023-07-31T14:55:30;100219.22;;;25.70
80246;BMP280;69558;39.208;-77.226;2023-07-31T14:57:56;100212.28;;;25.69
80246;BMP280;69558;39.208;-77.226;2023-07-31T15:00:22;100222.75;;;25.76
80246;BMP280;69558;39.208;-77.226;2023-07-31T15:02:50;100223.56;;;25.76
80246;BMP280;69558;39.208;-77.226;2023-07-31T15:05:17;100210.28;;;25.76
80246;BMP280;69558;39.208;-77.226;2023-07-31T15:07:43;100208.00;;;25.68
80246;BMP280;69558;39.208;-77.226;2023-07-31T15:10:09;100208.00;;;25.68
80246;BMP280;69558;39.208;-77.226;2023-07-31T15:12:35;100212.13;;;25.76
80246;BMP280;69558;39.208;-77.226;2023-07-31T15:15:04;100219.06;;;25.77
80246;BMP280;69558;39.208;-77.226;2023-07-31T15:17:30;100228.06;;;25.76
80246;BMP280;69558;39.208;-77.226;2023-07-31T15:19:56;100223.00;;;25.74
80246;BMP280;69558;39.208;-77.226;2023-07-31T15:22:22;100225.88;;;25.72
80246;BMP280;69558;39.208;-77.226;2023-07-31T15:24:48;100225.88;;;25.72
80246;BMP280;69558;39.208;-77.226;2023-07-31T15:27:14;100232.09;;;25.78
80246;BMP280;69558;39.208;-77.226;2023-07-31T15:29:41;100237.66;;;25.77
80246;BMP280;69558;39.208;-77.226;2023-07-31T15:32:08;100233.97;;;25.78
80246;BMP280;69558;39.208;-77.226;2023-07-31T15:34:34;100233.41;;;25.76
80246;BMP280;69558;39.208;-77.226;2023-07-31T15:37:00;100233.41;;;25.76
80246;BMP280;69558;39.208;-77.226;2023-07-31T15:39:27;100227.03;;;25.77
80246;BMP280;69558;39.208;-77.226;2023-07-31T15:41:53;100218.72;;;25.73
80246;BMP280;69558;39.208;-77.226;2023-07-31T15:44:19;100227.50;;;25.73
80246;BMP280;69558;39.208;-77.226;2023-07-31T15:46:47;100228.53;;;25.72
80246;BMP280;69558;39.208;-77.226;2023-07-31T15:49:13;100232.34;;;25.77
80246;BMP280;69558;39.208;-77.226;2023-07-31T15:51:39;100234.19;;;25.76
80246;BMP280;69558;39.208;-77.226;2023-07-31T15:54:05;100235.47;;;25.73
80246;BMP280;69558;39.208;-77.226;2023-07-31T15:56:31;100236.38;;;25.79
80246;BMP280;69558;39.208;-77.226;2023-07-31T15:58:57;100236.38;;;25.79
80246;BMP280;69558;39.208;-77.226;2023-07-31T16:01:24;100228.94;;;25.81
80246;BMP280;69558;39.208;-77.226;2023-07-31T16:03:51;100228.41;;;25.79
80246;BMP280;69558;39.208;-77.226;2023-07-31T16:06:18;100213.97;;;25.75
80246;BMP280;69558;39.208;-77.226;2023-07-31T16:08:45;100213.97;;;25.75
80246;BMP280;69558;39.208;-77.226;2023-07-31T16:11:11;100218.50;;;25.75
80246;BMP280;69558;39.208;-77.226;2023-07-31T16:13:37;100217.13;;;25.72
80246;BMP280;69558;39.208;-77.226;2023-07-31T16:16:03;100224.28;;;25.71
80246;BMP280;69558;39.208;-77.226;2023-07-31T16:18:29;100211.97;;;25.65
80246;BMP280;69558;39.208;-77.226;2023-07-31T16:20:55;100202.50;;;25.58
80246;BMP280;69558;39.208;-77.226;2023-07-31T16:23:21;100225.09;;;25.72
80246;BMP280;69558;39.208;-77.226;2023-07-31T16:25:47;100225.66;;;25.74
80246;BMP280;69558;39.208;-77.226;2023-07-31T16:28:15;100209.47;;;25.76
80246;BMP280;69558;39.208;-77.226;2023-07-31T16:30:41;100208.44;;;25.77
80246;BMP280;69558;39.208;-77.226;2023-07-31T16:33:07;100221.16;;;25.75
80246;BMP280;69558;39.208;-77.226;2023-07-31T16:35:33;100221.16;;;25.75
80246;BMP280;69558;39.208;-77.226;2023-07-31T16:37:59;100198.69;;;25.65
80246;BMP280;69558;39.208;-77.226;2023-07-31T16:40:25;100214.22;;;25.73
80246;BMP280;69558;39.208;-77.226;2023-07-31T16:42:51;100208.66;;;25.75
80246;BMP280;69558;39.208;-77.226;2023-07-31T16:45:16;100208.66;;;25.75
80246;BMP280;69558;39.208;-77.226;2023-07-31T16:47:43;100203.94;;;25.77